createdAt,value
2018-02-27T00:01:45.292Z,102103
2018-02-27T00:04:13.155Z,102097
2018-02-27T00:06:41.040Z,102093
2018-02-27T00:09:09.041Z,102090
2018-02-27T00:11:36.936Z,102093
2018-02-27T00:14:04.828Z,102089
2018-02-27T00:16:32.723Z,102097
2018-02-27T00:19:00.610Z,102091
2018-02-27T00:21:28.492Z,102093
2018-02-27T00:23:56.381Z,102085
2018-02-27T00:26:24.580Z,102103
2018-02-27T00:28:52.480Z,102099
2018-02-27T00:31:20.373Z,102097
2018-02-27T00:33:48.284Z,102088
2018-02-27T00:36:16.176Z,102101
2018-02-27T00:38:44.060Z,102091
2018-02-27T00:41:11.945Z,102088
2018-02-27T00:43:39.832Z,102078
2018-02-27T00:46:07.773Z,102088
2018-02-27T00:48:35.688Z,102079
2018-02-27T00:51:03.762Z,102081
2018-02-27T00:53:31.657Z,102075
2018-02-27T00:55:59.552Z,102090
2018-02-27T00:58:27.445Z,102088
2018-02-27T01:00:55.337Z,102081
2018-02-27T01:03:23.245Z,102082
2018-02-27T01:05:51.163Z,102085
2018-02-27T01:08:19.075Z,102093
2018-02-27T01:10:46.964Z,102078
2018-02-27T01:13:14.861Z,102081
2018-02-27T01:15:42.759Z,102081
2018-02-27T01:18:10.656Z,102068
2018-02-27T01:20:38.564Z,102067
2018-02-27T01:23:06.461Z,102060
2018-02-27T01:25:34.365Z,102062
2018-02-27T01:28:02.477Z,102060
2018-02-27T01:30:30.356Z,102054
2018-02-27T01:32:58.247Z,102061
2018-02-27T01:35:26.136Z,102064
2018-02-27T01:37:54.019Z,102047
2018-02-27T01:40:21.902Z,102053
2018-02-27T01:42:49.792Z,102039
2018-02-27T01:45:17.690Z,102037
2018-02-27T01:47:45.581Z,102035
2018-02-27T01:50:13.483Z,102032
2018-02-27T01:52:41.371Z,102035
2018-02-27T01:55:09.628Z,102038
2018-02-27T01:57:37.516Z,102025
2018-02-27T02:00:05.453Z,102027
2018-02-27T02:02:33.361Z,102016
2018-02-27T02:05:01.260Z,102022
2018-02-27T02:07:29.148Z,102024
2018-02-27T02:09:57.033Z,102025
2018-02-27T02:12:24.912Z,102022
2018-02-27T02:14:52.860Z,102028
2018-02-27T02:17:20.752Z,102023
2018-02-27T02:19:48.643Z,102015
2018-02-27T02:22:16.700Z,102012
2018-02-27T02:24:44.584Z,102015
2018-02-27T02:27:12.491Z,102019
2018-02-27T02:29:40.392Z,102007
2018-02-27T02:32:08.280Z,102015
2018-02-27T02:34:36.176Z,102001
2018-02-27T02:37:04.073Z,102002
2018-02-27T02:39:31.973Z,101998
2018-02-27T02:42:23.067Z,101996
2018-02-27T02:44:50.988Z,101999
2018-02-27T02:47:18.879Z,101986
2018-02-27T02:49:46.779Z,101984
2018-02-27T02:52:14.840Z,101982
2018-02-27T02:54:42.731Z,101975
2018-02-27T02:57:10.616Z,101980
2018-02-27T02:59:38.512Z,101967
2018-02-27T03:02:06.413Z,101978
2018-02-27T03:04:34.298Z,101984
2018-02-27T03:07:02.196Z,101984
2018-02-27T03:09:30.096Z,101985
2018-02-27T03:11:57.984Z,101984
2018-02-27T03:14:25.877Z,101973
2018-02-27T03:16:53.770Z,101966
2018-02-27T03:19:21.670Z,101958
2018-02-27T03:21:49.605Z,101956
2018-02-27T03:24:17.486Z,101947
2018-02-27T03:26:45.668Z,101960
2018-02-27T03:29:13.548Z,101953
2018-02-27T03:31:41.432Z,101947
2018-02-27T03:34:09.330Z,101935
2018-02-27T03:36:37.222Z,101924
2018-02-27T03:39:05.108Z,101929
2018-02-27T03:41:33.000Z,101927
2018-02-27T03:44:00.893Z,101914
2018-02-27T03:46:28.805Z,101913
2018-02-27T03:48:56.693Z,101917
2018-02-27T03:51:24.621Z,101911
2018-02-27T03:53:52.565Z,101905
2018-02-27T03:56:20.457Z,101905
2018-02-27T03:58:48.348Z,101902
2018-02-27T04:01:16.232Z,101898
2018-02-27T04:03:44.140Z,101896
2018-02-27T04:06:12.041Z,101895
2018-02-27T04:08:39.960Z,101896
2018-02-27T04:11:07.843Z,101896
2018-02-27T04:13:35.732Z,101898
2018-02-27T04:16:03.708Z,101892
2018-02-27T04:18:31.596Z,101886
2018-02-27T04:20:59.496Z,101897
2018-02-27T04:23:27.380Z,101889
2018-02-27T04:25:55.269Z,101894
2018-02-27T04:28:23.148Z,101888
2018-02-27T04:30:51.040Z,101888
2018-02-27T04:33:19.111Z,101898
2018-02-27T04:35:47.009Z,101883
2018-02-27T04:38:14.889Z,101884
2018-02-27T04:40:42.769Z,101890
2018-02-27T04:43:10.656Z,101898
2018-02-27T04:45:38.543Z,101897
2018-02-27T04:48:06.429Z,101886
2018-02-27T04:50:34.335Z,101894
2018-02-27T04:53:02.222Z,101872
2018-02-27T04:55:30.318Z,101890
2018-02-27T04:57:58.205Z,101888
2018-02-27T05:00:26.097Z,101887
2018-02-27T05:02:54.013Z,101879
2018-02-27T05:05:21.892Z,101889
2018-02-27T05:07:49.780Z,101881
2018-02-27T05:10:17.665Z,101880
2018-02-27T05:12:45.555Z,101879
2018-02-27T05:15:13.448Z,101880
2018-02-27T05:17:41.337Z,101870
2018-02-27T05:20:09.229Z,101870
2018-02-27T05:22:37.127Z,101875
2018-02-27T05:25:05.018Z,101876
2018-02-27T05:27:33.035Z,101870
2018-02-27T05:30:00.931Z,101869
2018-02-27T05:32:28.824Z,101864
2018-02-27T05:34:56.715Z,101862
2018-02-27T05:37:24.600Z,101870
2018-02-27T05:39:52.492Z,101878
2018-02-27T05:42:20.381Z,101881
2018-02-27T05:44:48.269Z,101880
2018-02-27T05:47:16.175Z,101872
2018-02-27T05:49:44.249Z,101863
2018-02-27T05:52:12.181Z,101869
2018-02-27T05:54:40.065Z,101874
2018-02-27T05:57:07.957Z,101874
2018-02-27T05:59:35.844Z,101874
2018-02-27T06:02:03.733Z,101872
2018-02-27T06:04:31.621Z,101857
2018-02-27T06:06:59.504Z,101855
2018-02-27T06:09:27.392Z,101864
2018-02-27T06:11:55.281Z,101856
2018-02-27T06:14:23.176Z,101861
2018-02-27T06:16:51.096Z,101858
2018-02-27T06:19:19.350Z,101861
2018-02-27T06:21:47.233Z,101861
2018-02-27T06:24:15.139Z,101857
2018-02-27T06:26:43.022Z,101862
2018-02-27T06:29:10.909Z,101863
2018-02-27T06:31:38.788Z,101862
2018-02-27T06:34:06.672Z,101869
2018-02-27T06:36:34.655Z,101858
2018-02-27T06:39:02.564Z,101861
2018-02-27T06:41:30.448Z,101856
2018-02-27T06:43:58.362Z,101855
2018-02-27T06:46:26.260Z,101863
2018-02-27T06:48:54.154Z,101853
2018-02-27T06:51:22.055Z,101859
2018-02-27T06:53:49.958Z,101853
2018-02-27T06:56:17.856Z,101848
2018-02-27T06:58:45.744Z,101844
2018-02-27T07:01:13.636Z,101842
2018-02-27T07:03:48.388Z,101846
2018-02-27T07:06:16.280Z,101845
2018-02-27T07:08:44.665Z,101855
2018-02-27T07:11:12.557Z,101845
2018-02-27T07:13:40.449Z,101846
2018-02-27T07:16:08.368Z,101849
2018-02-27T07:18:36.248Z,101842
2018-02-27T07:21:04.137Z,101840
2018-02-27T07:23:32.036Z,101842
2018-02-27T07:25:59.924Z,101840
2018-02-27T07:28:27.808Z,101841
2018-02-27T07:30:56.286Z,101846
2018-02-27T07:33:24.179Z,101849
2018-02-27T07:35:52.064Z,101842
2018-02-27T07:38:19.976Z,101855
2018-02-27T07:40:47.869Z,101860
2018-02-27T07:43:15.761Z,101839
2018-02-27T07:45:43.648Z,101845
2018-02-27T07:48:11.544Z,101830
2018-02-27T07:50:39.457Z,101826
2018-02-27T07:53:07.355Z,101831
2018-02-27T07:55:35.312Z,101833
2018-02-27T07:58:03.224Z,101829
2018-02-27T08:00:31.116Z,101833
2018-02-27T08:02:59.009Z,101839
2018-02-27T08:05:26.894Z,101838
2018-02-27T08:07:54.795Z,101830
2018-02-27T08:10:22.696Z,101838
2018-02-27T08:12:50.608Z,101827
2018-02-27T08:15:18.495Z,101834
2018-02-27T08:17:46.376Z,101835
2018-02-27T08:20:14.268Z,101834
2018-02-27T08:22:42.155Z,101833
2018-02-27T08:25:10.037Z,101842
2018-02-27T08:27:37.931Z,101828
2018-02-27T08:30:05.825Z,101827
2018-02-27T08:32:33.718Z,101844
2018-02-27T08:35:01.609Z,101838
2018-02-27T08:37:29.493Z,101835
2018-02-27T08:39:57.452Z,101832
2018-02-27T08:42:25.344Z,101834
2018-02-27T08:44:53.235Z,101812
2018-02-27T08:47:21.181Z,101829
2018-02-27T08:49:49.072Z,101824
2018-02-27T08:52:16.965Z,101832
2018-02-27T08:54:44.860Z,101833
2018-02-27T08:57:12.852Z,101832
2018-02-27T08:59:40.736Z,101832
2018-02-27T09:02:08.616Z,101821
2018-02-27T09:04:36.501Z,101829
2018-02-27T09:07:04.392Z,101827
2018-02-27T09:09:32.280Z,101820
2018-02-27T09:12:00.182Z,101823
2018-02-27T09:14:28.084Z,101818
2018-02-27T09:16:55.968Z,101822
2018-02-27T09:19:23.860Z,101819
2018-02-27T09:21:51.744Z,101805
2018-02-27T09:24:19.624Z,101818
2018-02-27T09:26:47.509Z,101812
2018-02-27T09:29:15.388Z,101802
2018-02-27T09:31:43.276Z,101803
2018-02-27T09:34:11.168Z,101808
2018-02-27T09:36:39.059Z,101796
2018-02-27T09:39:06.940Z,101800
2018-02-27T09:41:34.867Z,101795
2018-02-27T09:44:02.761Z,101788
2018-02-27T09:46:30.651Z,101774
2018-02-27T09:48:58.585Z,101778
2018-02-27T09:51:26.440Z,101786
2018-02-27T09:53:55.168Z,101781
2018-02-27T09:56:23.063Z,101780
2018-02-27T09:58:50.953Z,101781
2018-02-27T10:01:18.856Z,101792
2018-02-27T10:03:46.748Z,101803
2018-02-27T10:06:14.642Z,101797
2018-02-27T10:08:42.530Z,101796
2018-02-27T10:11:10.420Z,101790
2018-02-27T10:13:38.389Z,101794
2018-02-27T10:16:06.268Z,101803
2018-02-27T10:18:34.152Z,101788
2018-02-27T10:21:02.284Z,101786
2018-02-27T10:23:30.169Z,101783
2018-02-27T10:25:58.064Z,101772
2018-02-27T10:28:25.962Z,101771
2018-02-27T10:30:53.856Z,101778
2018-02-27T10:33:21.748Z,101773
2018-02-27T10:35:49.644Z,101764
2018-02-27T10:38:17.532Z,101770
2018-02-27T10:40:45.420Z,101757
2018-02-27T10:43:13.316Z,101767
2018-02-27T10:45:41.199Z,101755
2018-02-27T10:48:09.095Z,101750
2018-02-27T10:50:36.995Z,101755
2018-02-27T10:53:04.884Z,101755
2018-02-27T10:55:33.026Z,101760
2018-02-27T10:58:00.924Z,101762
2018-02-27T11:00:34.892Z,101758
2018-02-27T11:03:02.789Z,101762
2018-02-27T11:05:30.700Z,101745
2018-02-27T11:07:58.593Z,101746
2018-02-27T11:10:26.481Z,101748
2018-02-27T11:12:54.376Z,101736
2018-02-27T11:15:22.265Z,101745
2018-02-27T11:17:50.144Z,101740
2018-02-27T11:20:18.028Z,101743
2018-02-27T11:22:45.919Z,101747
2018-02-27T11:25:14.095Z,101734
2018-02-27T11:27:41.979Z,101741
2018-02-27T11:30:09.870Z,101741
2018-02-27T11:32:37.765Z,101739
2018-02-27T11:35:05.660Z,101734
2018-02-27T11:37:33.550Z,101729
2018-02-27T11:40:01.445Z,101735
2018-02-27T11:42:29.338Z,101731
2018-02-27T11:44:57.228Z,101714
2018-02-27T11:47:25.120Z,101731
2018-02-27T11:49:53.012Z,101727
2018-02-27T11:52:20.892Z,101720
2018-02-27T11:54:48.776Z,101719
2018-02-27T11:57:16.670Z,101712
2018-02-27T11:59:51.684Z,101710
2018-02-27T12:02:19.576Z,101712
2018-02-27T12:04:47.471Z,101726
2018-02-27T12:07:15.358Z,101721
2018-02-27T12:09:43.271Z,101712
2018-02-27T12:12:11.157Z,101719
2018-02-27T12:14:39.056Z,101706
2018-02-27T12:17:06.945Z,101709
2018-02-27T12:19:34.837Z,101721
2018-02-27T12:22:02.732Z,101725
2018-02-27T12:24:30.832Z,101706
2018-02-27T12:26:58.728Z,101709
2018-02-27T12:29:26.608Z,101705
2018-02-27T12:31:54.505Z,101698
2018-02-27T12:34:22.412Z,101714
2018-02-27T12:36:50.314Z,101708
2018-02-27T12:39:18.217Z,101699
2018-02-27T12:41:46.110Z,101698
2018-02-27T12:44:14.025Z,101699
2018-02-27T12:46:41.936Z,101695
2018-02-27T12:49:09.825Z,101685
2018-02-27T12:51:37.708Z,101687
2018-02-27T12:54:05.989Z,101694
2018-02-27T12:56:33.891Z,101677
2018-02-27T12:59:01.779Z,101678
2018-02-27T13:01:29.668Z,101676
2018-02-27T13:03:57.567Z,101662
2018-02-27T13:06:25.457Z,101670
2018-02-27T13:08:53.351Z,101671
2018-02-27T13:11:21.244Z,101663
2018-02-27T13:13:49.174Z,101663
2018-02-27T13:16:17.066Z,101665
2018-02-27T13:18:44.961Z,101656
2018-02-27T13:21:13.088Z,101662
2018-02-27T13:23:40.980Z,101657
2018-02-27T13:26:08.884Z,101653
2018-02-27T13:28:36.774Z,101649
2018-02-27T13:31:05.799Z,101645
2018-02-27T13:33:37.049Z,101653
2018-02-27T13:36:05.804Z,101646
2018-02-27T13:38:34.337Z,101641
2018-02-27T13:41:02.252Z,101644
2018-02-27T13:43:30.877Z,101634
2018-02-27T13:45:58.776Z,101643
2018-02-27T13:48:28.482Z,101629
2018-02-27T13:50:57.014Z,101634
2018-02-27T13:53:27.251Z,101636
2018-02-27T13:55:55.724Z,101629
2018-02-27T13:58:24.122Z,101628
2018-02-27T14:00:52.017Z,101621
2018-02-27T14:03:21.645Z,101627
2018-02-27T14:05:51.515Z,101629
2018-02-27T14:08:19.405Z,101618
2018-02-27T14:10:47.304Z,101621
2018-02-27T14:13:15.686Z,101615
2018-02-27T14:15:43.576Z,101617
2018-02-27T14:18:12.541Z,101620
2018-02-27T14:20:40.429Z,101612
2018-02-27T14:23:09.477Z,101474
2018-02-27T14:25:37.432Z,101596
2018-02-27T14:28:06.067Z,101605
2018-02-27T14:30:33.953Z,101602
2018-02-27T14:33:01.853Z,101590
2018-02-27T14:35:32.561Z,101600
2018-02-27T14:38:00.444Z,101598
2018-02-27T14:40:29.992Z,101603
2018-02-27T14:42:57.904Z,101604
2018-02-27T14:45:25.840Z,101607
2018-02-27T14:47:53.734Z,101617
2018-02-27T14:50:21.651Z,101618
2018-02-27T14:52:49.559Z,101627
2018-02-27T14:55:17.451Z,101625
2018-02-27T14:57:45.548Z,101627
2018-02-27T15:00:13.440Z,101623
2018-02-27T15:02:41.329Z,101620
2018-02-27T15:05:09.236Z,101631
2018-02-27T15:07:37.139Z,101638
2018-02-27T15:10:05.105Z,101623
2018-02-27T15:12:33.001Z,101621
2018-02-27T15:15:00.901Z,101620
2018-02-27T15:17:28.799Z,101633
2018-02-27T15:19:56.693Z,101625
2018-02-27T15:22:24.631Z,101634
2018-02-27T15:24:52.700Z,101628
2018-02-27T15:27:20.589Z,101609
2018-02-27T15:29:48.489Z,101624
2018-02-27T15:32:16.376Z,101618
2018-02-27T15:34:44.277Z,101604
2018-02-27T15:37:12.169Z,101619
2018-02-27T15:39:40.057Z,101609
2018-02-27T15:42:08.024Z,101608
2018-02-27T15:44:35.921Z,101615
2018-02-27T15:47:03.827Z,101624
2018-02-27T15:49:31.721Z,101619
2018-02-27T15:51:59.608Z,101613
2018-02-27T15:54:27.501Z,101608
2018-02-27T15:56:55.398Z,101608
2018-02-27T15:59:23.285Z,101608
2018-02-27T16:01:51.216Z,101609
2018-02-27T16:04:19.104Z,101606
2018-02-27T16:06:47.008Z,101619
2018-02-27T16:09:14.912Z,101614
2018-02-27T16:11:42.796Z,101618
2018-02-27T16:14:10.692Z,101616
2018-02-27T16:16:38.596Z,101621
2018-02-27T16:19:06.519Z,101615
2018-02-27T16:21:34.466Z,101615
2018-02-27T16:24:02.389Z,101615
2018-02-27T16:26:30.285Z,101621
2018-02-27T16:28:58.227Z,101618
2018-02-27T16:31:26.113Z,101619
2018-02-27T16:33:54.028Z,101625
2018-02-27T16:36:21.931Z,101620
2018-02-27T16:38:49.873Z,101622
2018-02-27T16:41:17.758Z,101618
2018-02-27T16:43:45.716Z,101624
2018-02-27T16:46:13.625Z,101628
2018-02-27T16:48:41.513Z,101621
2018-02-27T16:51:09.399Z,101633
2018-02-27T16:53:37.296Z,101630
2018-02-27T16:56:05.236Z,101640
2018-02-27T16:58:33.123Z,101633
2018-02-27T17:01:01.017Z,101642
2018-02-27T17:03:28.903Z,101635
2018-02-27T17:05:56.787Z,101638
2018-02-27T17:08:24.708Z,101646
2018-02-27T17:10:52.617Z,101652
2018-02-27T17:13:20.945Z,101653
2018-02-27T17:15:48.895Z,101651
2018-02-27T17:18:16.788Z,101646
2018-02-27T17:20:45.013Z,101641
2018-02-27T17:23:12.920Z,101643
2018-02-27T17:25:40.806Z,101646
2018-02-27T17:28:08.697Z,101648
2018-02-27T17:30:36.628Z,101657
2018-02-27T17:33:04.535Z,101661
2018-02-27T17:35:32.480Z,101658
2018-02-27T17:38:00.397Z,101656
2018-02-27T17:40:28.285Z,101651
2018-02-27T17:42:56.180Z,101671
2018-02-27T17:45:24.089Z,101666
2018-02-27T17:47:52.029Z,101668
2018-02-27T17:50:19.913Z,101669
2018-02-27T17:52:47.813Z,101667
2018-02-27T17:55:15.864Z,101670
2018-02-27T17:57:43.776Z,101673
2018-02-27T18:00:11.712Z,101663
2018-02-27T18:02:39.634Z,101670
2018-02-27T18:05:07.532Z,101672
2018-02-27T18:07:35.427Z,101674
2018-02-27T18:10:03.359Z,101659
2018-02-27T18:12:31.286Z,101684
2018-02-27T18:14:59.193Z,101690
2018-02-27T18:17:27.082Z,101684
2018-02-27T18:19:55.004Z,101701
2018-02-27T18:22:23.153Z,101685
2018-02-27T18:24:51.044Z,101693
2018-02-27T18:27:18.932Z,101690
2018-02-27T18:29:46.833Z,101690
2018-02-27T18:32:14.736Z,101680
2018-02-27T18:34:42.627Z,101700
2018-02-27T18:37:10.509Z,101698
2018-02-27T18:39:38.397Z,101689
2018-02-27T18:42:06.309Z,101687
2018-02-27T18:44:34.207Z,101695
2018-02-27T18:47:02.097Z,101701
2018-02-27T18:49:29.980Z,101697
2018-02-27T18:51:57.908Z,101700
2018-02-27T18:54:31.761Z,101707
2018-02-27T18:56:59.685Z,101699
2018-02-27T18:59:28.115Z,101708
2018-02-27T19:01:56.004Z,101711
2018-02-27T19:04:23.894Z,101712
2018-02-27T19:06:51.785Z,101728
2018-02-27T19:09:19.721Z,101721
2018-02-27T19:11:47.612Z,101717
2018-02-27T19:14:15.515Z,101731
2018-02-27T19:16:43.416Z,101737
2018-02-27T19:19:11.364Z,101734
2018-02-27T19:21:39.504Z,101746
2018-02-27T19:24:07.575Z,101747
2018-02-27T19:26:35.594Z,101741
2018-02-27T19:29:03.646Z,101751
2018-02-27T19:31:31.643Z,101768
2018-02-27T19:33:59.717Z,101762
2018-02-27T19:36:27.636Z,101770
2018-02-27T19:38:55.529Z,101772
2018-02-27T19:41:23.719Z,101776
2018-02-27T19:43:51.613Z,101787
2018-02-27T19:46:19.542Z,101786
2018-02-27T19:48:47.453Z,101788
2018-02-27T19:51:15.342Z,101790
2018-02-27T19:53:43.240Z,101804
2018-02-27T19:56:11.566Z,101805
2018-02-27T19:58:39.473Z,101807
2018-02-27T20:01:07.364Z,101803
2018-02-27T20:03:35.262Z,101815
2018-02-27T20:06:03.153Z,101814
2018-02-27T20:08:31.390Z,101822
2018-02-27T20:10:59.368Z,101827
2018-02-27T20:13:27.275Z,101830
2018-02-27T20:15:56.013Z,101838
2018-02-27T20:18:23.941Z,101834
2018-02-27T20:20:51.833Z,101833
2018-02-27T20:23:25.953Z,101843
2018-02-27T20:25:53.908Z,101844
2018-02-27T20:28:27.941Z,101844
2018-02-27T20:30:55.849Z,101851
2018-02-27T20:33:23.749Z,101852
2018-02-27T20:35:51.631Z,101863
2018-02-27T20:38:25.928Z,101862
2018-02-27T20:40:53.829Z,101862
2018-02-27T20:43:21.725Z,101862
2018-02-27T20:45:49.624Z,101858
2018-02-27T20:48:17.517Z,101873
2018-02-27T20:50:45.416Z,101873
2018-02-27T20:53:13.300Z,101874
2018-02-27T20:55:41.477Z,101888
2018-02-27T20:58:09.364Z,101879
2018-02-27T21:00:37.253Z,101885
2018-02-27T21:03:05.157Z,101878
2018-02-27T21:05:33.053Z,101880
2018-02-27T21:08:00.968Z,101890
2018-02-27T21:10:28.890Z,101887
2018-02-27T21:12:56.757Z,101901
2018-02-27T21:15:24.645Z,101899
2018-02-27T21:17:52.545Z,101904
2018-02-27T21:20:20.452Z,101899
2018-02-27T21:22:48.414Z,101899
2018-02-27T21:25:16.301Z,101898
2018-02-27T21:27:44.254Z,101909
2018-02-27T21:30:12.146Z,101916
2018-02-27T21:32:40.067Z,101904
2018-02-27T21:35:07.997Z,101903
2018-02-27T21:37:35.898Z,101909
2018-02-27T21:40:03.817Z,101914
2018-02-27T21:42:31.697Z,101911
2018-02-27T21:44:59.588Z,101905
2018-02-27T21:47:27.481Z,101911
2018-02-27T21:49:55.368Z,101921
2018-02-27T21:52:23.260Z,101905
2018-02-27T21:54:51.156Z,101914
2018-02-27T21:57:19.053Z,101918
2018-02-27T21:59:46.933Z,101910
2018-02-27T22:02:14.824Z,101914
2018-02-27T22:04:42.713Z,101914
2018-02-27T22:07:10.606Z,101918
2018-02-27T22:09:38.576Z,101915
2018-02-27T22:12:06.464Z,101922
2018-02-27T22:14:34.384Z,101933
2018-02-27T22:17:02.292Z,101918
2018-02-27T22:19:30.189Z,101928
2018-02-27T22:21:58.076Z,101914
2018-02-27T22:24:25.994Z,101924
2018-02-27T22:26:54.209Z,101926
2018-02-27T22:29:22.100Z,101928
2018-02-27T22:31:49.988Z,101929
2018-02-27T22:34:17.883Z,101928
2018-02-27T22:36:45.801Z,101933
2018-02-27T22:39:13.705Z,101927
2018-02-27T22:41:41.596Z,101926
2018-02-27T22:44:09.481Z,101943
2018-02-27T22:46:37.404Z,101932
2018-02-27T22:49:05.303Z,101937
2018-02-27T22:51:33.194Z,101931
2018-02-27T22:54:01.080Z,101930
2018-02-27T22:56:29.096Z,101950
2018-02-27T22:58:56.979Z,101938
2018-02-27T23:01:24.872Z,101932
2018-02-27T23:03:52.770Z,101939
2018-02-27T23:06:20.695Z,101950
2018-02-27T23:08:48.573Z,101936
2018-02-27T23:11:16.465Z,101942
2018-02-27T23:13:44.408Z,101942
2018-02-27T23:16:12.266Z,101948
2018-02-27T23:18:40.156Z,101950
2018-02-27T23:21:08.395Z,101946
2018-02-27T23:23:36.285Z,101951
2018-02-27T23:26:07.689Z,101948
2018-02-27T23:28:36.888Z,101947
2018-02-27T23:31:05.299Z,101937
2018-02-27T23:33:33.540Z,101943
2018-02-27T23:36:01.426Z,101958
2018-02-27T23:38:29.317Z,101954
2018-02-27T23:40:57.228Z,101959
2018-02-27T23:43:25.139Z,101946
2018-02-27T23:45:53.065Z,101961
2018-02-27T23:48:20.956Z,101964
2018-02-27T23:50:49.148Z,101962
2018-02-27T23:53:17.052Z,101947
2018-02-27T23:55:44.941Z,101965
2018-02-27T23:58:12.835Z,101962
